Airfield :
LOGIN :

Register | Disclaimer

   EN    FR    IT 

 










Legend :    VFR   Marginal VFR   IFR   Intensive IFR   Very Intensive IFR
Visi :
Ceiling :
>= 8 km
>= 3000ft
5 to 8 km
1000 to 3000 ft
1500m to 5 km
500 to 1000 ft
800 to 1500m
200 to 500 ft
< 800m
< 200 ft
Symbols :   Thunderstorms  Fog  Heavy snow  Heavy precipitations  Wind > 20 kt
SIGMETs :     Misc.  Thunderstorms  Icing  Turbulence  Mountain Waves  Volcanic Ashes






- Airport Elevation : 106 ft
- IATA code : NRN


EDLV - Weeze

CURRENT METAR :
  • 140620Z 13007KT 090V150 CAVOK 05/03 Q1000

EXPIRED METARs :
  • 140550Z 13007KT CAVOK 04/03 Q1000
  • 140520Z 13007KT 080V150 CAVOK 04/03 Q0999
  • 140450Z 12008KT CAVOK 04/03 Q0999
  • 140420Z 13009KT 100V160 CAVOK 04/03 Q0999
  • 140350Z 14007KT CAVOK 05/04 Q0999

TAF TAF EDLV
Valid from the 14 at 06:00 until the 15 at 06:00 UTC


140500Z 1406/1506 14010KT CAVOK
BECMG 1414/1417 09005KT
BECMG 1420/1423 02004KT



MET'MAP, your aeronautical weather chart ! - Copyright ORBIFLY December 2007 - Disclaimer

ORBIFLY MET'MAP TEAM :

Programming & Development : Alexandra Zaïnal
Concept & Development : Baudouin d'Aumeries
Co-Development & Prog : Marc-Olivier Méhu
Technical & hardware support : Manuel Goepfert

Contact : metmap@orbifly.com




SOURCES & CREDITS :

   NOAA